Portada
METAR-TAF:

METAR-TAF

Aeroports :

Granada, Espanya

latitud: 37-11N, longitud: 003-47W, altitud: 567 m

Observació

L'informe es va fer fa 32 minuts, a les 22:00 UTC
Vent 2 kt amb direcció variable
Temperatura 6°C
Humitat 87%
Pressió 1018 hPa
Visibilitat 10 km o més
sense núvols per sota de 1500 mi sense presència de cumulonimbus.

METAR: LEGR 052200Z VRB02KT CAVOK 06/04 Q1018

Hora: 23:32 (22:32 UTC)

Pronòstic

L'informe es va fer fa 2 hores i 32 minuts, a les 20:00 UTC
Pronòstic vàlid del 05 a les 21 UTC al 06 a les 21 UTC
Vent 2 kt amb direcció variable
Visibilitat 10 km o més
Núvols disperses a una alçada de 5000 ft

TAF: LEGR 052000Z 0521/0621 VRB02KT 9999 SCT050 TX16/0615Z TN03/0607Z

Observacions i pronòstics meteorològics de més de 4000 aeroports (METAR i TAF).

Les estacions disponibles són els punts grocs i vermells al mapa.

Posi el ratolí al punt desitjat per veure el nom de l'estació.

Feu clic per veure les observacions i els pronòstics meteorològics.

Per canviar el mapa: feu clic els botons verds amb una creu de color negre per apropar; al botó verd amb un guió per allunyar la imatge; o en les fletxes verdes per a mapes adjacents.


METAR-TAF: